sensor_id;sensor_type;location;lat;lon;timestamp;P1;durP1;ratioP1;P2;durP2;ratioP2
43363;SDS011;40636;52.424;-1.948;2022-07-23T00:00:27;17.25;;;9.43;;
43363;SDS011;40636;52.424;-1.948;2022-07-23T00:02:59;14.00;;;8.48;;
43363;SDS011;40636;52.424;-1.948;2022-07-23T00:05:26;16.75;;;10.32;;
43363;SDS011;40636;52.424;-1.948;2022-07-23T00:07:53;16.63;;;9.50;;
43363;SDS011;40636;52.424;-1.948;2022-07-23T00:10:20;14.25;;;9.32;;
43363;SDS011;40636;52.424;-1.948;2022-07-23T00:12:46;15.25;;;9.32;;
43363;SDS011;40636;52.424;-1.948;2022-07-23T00:15:17;18.60;;;10.27;;
43363;SDS011;40636;52.424;-1.948;2022-07-23T00:17:44;14.63;;;8.70;;
43363;SDS011;40636;52.424;-1.948;2022-07-23T00:20:12;17.33;;;9.40;;
43363;SDS011;40636;52.424;-1.948;2022-07-23T00:22:49;17.40;;;9.32;;
43363;SDS011;40636;52.424;-1.948;2022-07-23T00:25:18;15.15;;;9.25;;
43363;SDS011;40636;52.424;-1.948;2022-07-23T00:27:55;15.00;;;8.25;;
43363;SDS011;40636;52.424;-1.948;2022-07-23T00:30:23;13.95;;;8.18;;
43363;SDS011;40636;52.424;-1.948;2022-07-23T00:32:51;17.30;;;10.90;;
43363;SDS011;40636;52.424;-1.948;2022-07-23T00:35:22;16.80;;;10.00;;
43363;SDS011;40636;52.424;-1.948;2022-07-23T00:37:55;18.17;;;10.20;;
43363;SDS011;40636;52.424;-1.948;2022-07-23T00:40:22;17.95;;;11.02;;
43363;SDS011;40636;52.424;-1.948;2022-07-23T00:42:49;16.08;;;10.10;;
43363;SDS011;40636;52.424;-1.948;2022-07-23T00:45:16;16.95;;;9.73;;
43363;SDS011;40636;52.424;-1.948;2022-07-23T00:47:43;14.55;;;9.20;;
43363;SDS011;40636;52.424;-1.948;2022-07-23T00:50:11;15.77;;;9.55;;
43363;SDS011;40636;52.424;-1.948;2022-07-23T00:52:38;14.82;;;10.10;;
43363;SDS011;40636;52.424;-1.948;2022-07-23T00:55:07;14.93;;;9.60;;
43363;SDS011;40636;52.424;-1.948;2022-07-23T00:57:36;19.75;;;11.30;;
43363;SDS011;40636;52.424;-1.948;2022-07-23T01:00:04;19.70;;;10.77;;
43363;SDS011;40636;52.424;-1.948;2022-07-23T01:02:33;20.13;;;11.57;;
43363;SDS011;40636;52.424;-1.948;2022-07-23T01:05:00;18.73;;;11.27;;
43363;SDS011;40636;52.424;-1.948;2022-07-23T01:07:27;17.42;;;10.52;;
43363;SDS011;40636;52.424;-1.948;2022-07-23T01:09:54;20.13;;;12.13;;
43363;SDS011;40636;52.424;-1.948;2022-07-23T01:12:22;16.35;;;10.88;;
43363;SDS011;40636;52.424;-1.948;2022-07-23T01:14:55;18.90;;;11.52;;
43363;SDS011;40636;52.424;-1.948;2022-07-23T01:17:23;21.17;;;10.73;;
43363;SDS011;40636;52.424;-1.948;2022-07-23T01:19:50;19.00;;;12.05;;
43363;SDS011;40636;52.424;-1.948;2022-07-23T01:22:18;18.05;;;10.75;;
43363;SDS011;40636;52.424;-1.948;2022-07-23T01:24:46;21.88;;;11.35;;
43363;SDS011;40636;52.424;-1.948;2022-07-23T01:27:13;22.90;;;10.90;;
43363;SDS011;40636;52.424;-1.948;2022-07-23T01:29:40;18.83;;;10.85;;
43363;SDS011;40636;52.424;-1.948;2022-07-23T01:32:07;21.88;;;11.70;;
43363;SDS011;40636;52.424;-1.948;2022-07-23T01:34:34;17.63;;;10.93;;
43363;SDS011;40636;52.424;-1.948;2022-07-23T01:37:01;22.25;;;13.15;;
43363;SDS011;40636;52.424;-1.948;2022-07-23T01:39:28;19.02;;;11.82;;
43363;SDS011;40636;52.424;-1.948;2022-07-23T01:41:55;22.00;;;11.27;;
43363;SDS011;40636;52.424;-1.948;2022-07-23T01:44:21;19.60;;;11.90;;
43363;SDS011;40636;52.424;-1.948;2022-07-23T01:46:48;19.20;;;11.10;;
43363;SDS011;40636;52.424;-1.948;2022-07-23T01:49:15;19.65;;;10.23;;
43363;SDS011;40636;52.424;-1.948;2022-07-23T01:51:42;17.08;;;10.50;;
43363;SDS011;40636;52.424;-1.948;2022-07-23T01:54:29;18.23;;;9.75;;
43363;SDS011;40636;52.424;-1.948;2022-07-23T01:56:57;17.35;;;9.10;;
43363;SDS011;40636;52.424;-1.948;2022-07-23T01:59:24;14.73;;;9.15;;
43363;SDS011;40636;52.424;-1.948;2022-07-23T02:01:52;16.33;;;10.13;;
43363;SDS011;40636;52.424;-1.948;2022-07-23T02:04:20;13.20;;;7.95;;
43363;SDS011;40636;52.424;-1.948;2022-07-23T02:06:48;11.43;;;6.90;;
43363;SDS011;40636;52.424;-1.948;2022-07-23T02:09:15;14.55;;;6.90;;
43363;SDS011;40636;52.424;-1.948;2022-07-23T02:11:42;14.40;;;5.88;;
43363;SDS011;40636;52.424;-1.948;2022-07-23T02:14:09;13.40;;;6.30;;
43363;SDS011;40636;52.424;-1.948;2022-07-23T02:16:36;11.00;;;6.38;;
43363;SDS011;40636;52.424;-1.948;2022-07-23T02:19:03;17.30;;;8.30;;
43363;SDS011;40636;52.424;-1.948;2022-07-23T02:21:30;11.20;;;6.10;;
43363;SDS011;40636;52.424;-1.948;2022-07-23T02:23:57;10.32;;;6.20;;
43363;SDS011;40636;52.424;-1.948;2022-07-23T02:26:24;14.43;;;7.10;;
43363;SDS011;40636;52.424;-1.948;2022-07-23T02:28:51;13.07;;;6.82;;
43363;SDS011;40636;52.424;-1.948;2022-07-23T02:31:19;15.18;;;6.47;;
43363;SDS011;40636;52.424;-1.948;2022-07-23T02:33:47;12.05;;;6.50;;
43363;SDS011;40636;52.424;-1.948;2022-07-23T02:36:13;11.32;;;6.68;;
43363;SDS011;40636;52.424;-1.948;2022-07-23T02:38:40;15.32;;;6.80;;
43363;SDS011;40636;52.424;-1.948;2022-07-23T02:41:07;13.05;;;7.18;;
43363;SDS011;40636;52.424;-1.948;2022-07-23T02:43:35;11.45;;;6.80;;
43363;SDS011;40636;52.424;-1.948;2022-07-23T02:46:02;17.25;;;7.43;;
43363;SDS011;40636;52.424;-1.948;2022-07-23T02:48:29;13.40;;;7.18;;
43363;SDS011;40636;52.424;-1.948;2022-07-23T02:50:56;14.10;;;7.70;;
43363;SDS011;40636;52.424;-1.948;2022-07-23T02:53:23;12.80;;;8.55;;
43363;SDS011;40636;52.424;-1.948;2022-07-23T02:55:50;11.48;;;7.18;;
43363;SDS011;40636;52.424;-1.948;2022-07-23T02:58:17;18.17;;;8.50;;
43363;SDS011;40636;52.424;-1.948;2022-07-23T03:00:44;19.75;;;8.77;;
43363;SDS011;40636;52.424;-1.948;2022-07-23T03:03:11;18.23;;;8.30;;
43363;SDS011;40636;52.424;-1.948;2022-07-23T03:05:38;12.75;;;7.07;;
43363;SDS011;40636;52.424;-1.948;2022-07-23T03:08:05;13.18;;;8.20;;
43363;SDS011;40636;52.424;-1.948;2022-07-23T03:10:32;18.08;;;6.97;;
43363;SDS011;40636;52.424;-1.948;2022-07-23T03:12:59;13.85;;;8.60;;
43363;SDS011;40636;52.424;-1.948;2022-07-23T03:15:25;17.23;;;8.73;;
43363;SDS011;40636;52.424;-1.948;2022-07-23T03:17:52;14.13;;;8.10;;
43363;SDS011;40636;52.424;-1.948;2022-07-23T03:20:19;14.63;;;7.60;;
43363;SDS011;40636;52.424;-1.948;2022-07-23T03:22:46;13.60;;;7.13;;
43363;SDS011;40636;52.424;-1.948;2022-07-23T03:25:13;16.10;;;8.10;;
43363;SDS011;40636;52.424;-1.948;2022-07-23T03:27:40;14.43;;;8.05;;
43363;SDS011;40636;52.424;-1.948;2022-07-23T03:30:07;13.15;;;7.68;;
43363;SDS011;40636;52.424;-1.948;2022-07-23T03:32:34;16.52;;;8.02;;
43363;SDS011;40636;52.424;-1.948;2022-07-23T03:35:01;13.27;;;7.57;;
43363;SDS011;40636;52.424;-1.948;2022-07-23T03:37:28;14.27;;;7.65;;
43363;SDS011;40636;52.424;-1.948;2022-07-23T03:39:55;15.00;;;8.88;;
43363;SDS011;40636;52.424;-1.948;2022-07-23T03:42:22;16.02;;;8.02;;
43363;SDS011;40636;52.424;-1.948;2022-07-23T03:44:49;14.95;;;8.30;;
43363;SDS011;40636;52.424;-1.948;2022-07-23T03:47:16;13.75;;;8.40;;
43363;SDS011;40636;52.424;-1.948;2022-07-23T03:49:43;21.13;;;8.10;;
43363;SDS011;40636;52.424;-1.948;2022-07-23T03:52:10;13.55;;;7.57;;
43363;SDS011;40636;52.424;-1.948;2022-07-23T03:54:37;13.68;;;6.72;;
43363;SDS011;40636;52.424;-1.948;2022-07-23T03:57:04;18.23;;;7.97;;
43363;SDS011;40636;52.424;-1.948;2022-07-23T03:59:31;13.98;;;8.15;;
43363;SDS011;40636;52.424;-1.948;2022-07-23T04:01:58;14.25;;;6.88;;
43363;SDS011;40636;52.424;-1.948;2022-07-23T04:04:25;14.27;;;7.40;;
43363;SDS011;40636;52.424;-1.948;2022-07-23T04:06:52;11.50;;;7.28;;
43363;SDS011;40636;52.424;-1.948;2022-07-23T04:09:19;19.02;;;8.82;;
43363;SDS011;40636;52.424;-1.948;2022-07-23T04:11:46;14.25;;;7.80;;
43363;SDS011;40636;52.424;-1.948;2022-07-23T04:14:14;13.15;;;8.50;;
43363;SDS011;40636;52.424;-1.948;2022-07-23T04:16:40;11.35;;;7.07;;
43363;SDS011;40636;52.424;-1.948;2022-07-23T04:19:07;13.57;;;7.80;;
43363;SDS011;40636;52.424;-1.948;2022-07-23T04:21:34;11.43;;;6.00;;
43363;SDS011;40636;52.424;-1.948;2022-07-23T04:24:01;9.98;;;7.13;;
43363;SDS011;40636;52.424;-1.948;2022-07-23T04:26:28;12.05;;;6.63;;
43363;SDS011;40636;52.424;-1.948;2022-07-23T04:28:55;14.45;;;7.18;;
43363;SDS011;40636;52.424;-1.948;2022-07-23T04:31:22;15.20;;;7.72;;
43363;SDS011;40636;52.424;-1.948;2022-07-23T04:33:49;15.02;;;7.43;;
43363;SDS011;40636;52.424;-1.948;2022-07-23T04:36:16;12.02;;;6.32;;
43363;SDS011;40636;52.424;-1.948;2022-07-23T04:38:42;11.13;;;6.55;;
43363;SDS011;40636;52.424;-1.948;2022-07-23T04:41:09;13.38;;;7.00;;
43363;SDS011;40636;52.424;-1.948;2022-07-23T04:43:36;13.20;;;7.22;;
43363;SDS011;40636;52.424;-1.948;2022-07-23T04:46:03;14.43;;;7.43;;
43363;SDS011;40636;52.424;-1.948;2022-07-23T04:48:31;11.52;;;7.13;;
43363;SDS011;40636;52.424;-1.948;2022-07-23T04:50:58;12.27;;;7.20;;
43363;SDS011;40636;52.424;-1.948;2022-07-23T04:53:25;15.20;;;6.88;;
43363;SDS011;40636;52.424;-1.948;2022-07-23T04:55:52;13.85;;;7.03;;
43363;SDS011;40636;52.424;-1.948;2022-07-23T04:58:19;10.55;;;6.43;;
43363;SDS011;40636;52.424;-1.948;2022-07-23T05:00:46;14.68;;;7.53;;
43363;SDS011;40636;52.424;-1.948;2022-07-23T05:03:14;13.48;;;7.80;;
43363;SDS011;40636;52.424;-1.948;2022-07-23T05:05:41;14.15;;;7.75;;
43363;SDS011;40636;52.424;-1.948;2022-07-23T05:08:07;14.90;;;8.20;;
43363;SDS011;40636;52.424;-1.948;2022-07-23T05:10:35;13.18;;;8.63;;
43363;SDS011;40636;52.424;-1.948;2022-07-23T05:13:02;17.17;;;9.57;;
43363;SDS011;40636;52.424;-1.948;2022-07-23T05:15:29;15.38;;;9.00;;
43363;SDS011;40636;52.424;-1.948;2022-07-23T05:17:56;17.23;;;8.85;;
43363;SDS011;40636;52.424;-1.948;2022-07-23T05:20:23;14.60;;;8.65;;
43363;SDS011;40636;52.424;-1.948;2022-07-23T05:22:51;13.40;;;8.02;;
43363;SDS011;40636;52.424;-1.948;2022-07-23T05:25:18;18.95;;;8.60;;
43363;SDS011;40636;52.424;-1.948;2022-07-23T05:27:45;14.77;;;8.35;;
43363;SDS011;40636;52.424;-1.948;2022-07-23T05:30:11;15.10;;;8.27;;
43363;SDS011;40636;52.424;-1.948;2022-07-23T05:32:38;15.55;;;8.23;;
43363;SDS011;40636;52.424;-1.948;2022-07-23T05:35:06;13.63;;;7.28;;
43363;SDS011;40636;52.424;-1.948;2022-07-23T05:37:33;13.38;;;6.55;;
43363;SDS011;40636;52.424;-1.948;2022-07-23T05:40:01;12.57;;;7.57;;
43363;SDS011;40636;52.424;-1.948;2022-07-23T05:42:34;18.58;;;9.00;;
43363;SDS011;40636;52.424;-1.948;2022-07-23T05:45:02;10.88;;;6.45;;
43363;SDS011;40636;52.424;-1.948;2022-07-23T05:47:38;13.60;;;6.85;;
43363;SDS011;40636;52.424;-1.948;2022-07-23T05:50:15;14.73;;;7.28;;
43363;SDS011;40636;52.424;-1.948;2022-07-23T05:52:42;12.10;;;6.65;;
43363;SDS011;40636;52.424;-1.948;2022-07-23T05:55:10;13.75;;;6.80;;
43363;SDS011;40636;52.424;-1.948;2022-07-23T05:57:39;9.80;;;6.85;;
43363;SDS011;40636;52.424;-1.948;2022-07-23T06:00:07;12.90;;;5.75;;
43363;SDS011;40636;52.424;-1.948;2022-07-23T06:02:35;14.27;;;5.25;;
43363;SDS011;40636;52.424;-1.948;2022-07-23T06:05:04;7.85;;;5.55;;
43363;SDS011;40636;52.424;-1.948;2022-07-23T06:07:31;14.35;;;5.45;;
43363;SDS011;40636;52.424;-1.948;2022-07-23T06:09:58;8.82;;;4.47;;
43363;SDS011;40636;52.424;-1.948;2022-07-23T06:12:25;8.90;;;5.20;;
43363;SDS011;40636;52.424;-1.948;2022-07-23T06:14:52;6.38;;;3.97;;
43363;SDS011;40636;52.424;-1.948;2022-07-23T06:17:19;6.38;;;4.60;;
43363;SDS011;40636;52.424;-1.948;2022-07-23T06:19:45;11.55;;;4.03;;
43363;SDS011;40636;52.424;-1.948;2022-07-23T06:22:12;7.97;;;3.83;;
43363;SDS011;40636;52.424;-1.948;2022-07-23T06:24:39;11.80;;;3.88;;
43363;SDS011;40636;52.424;-1.948;2022-07-23T06:27:06;16.45;;;3.88;;
43363;SDS011;40636;52.424;-1.948;2022-07-23T06:29:33;5.80;;;3.67;;
43363;SDS011;40636;52.424;-1.948;2022-07-23T06:32:00;6.18;;;3.20;;
43363;SDS011;40636;52.424;-1.948;2022-07-23T06:34:27;5.15;;;3.33;;
43363;SDS011;40636;52.424;-1.948;2022-07-23T06:36:54;4.30;;;2.42;;
43363;SDS011;40636;52.424;-1.948;2022-07-23T06:39:21;8.70;;;2.53;;
43363;SDS011;40636;52.424;-1.948;2022-07-23T06:41:47;3.83;;;3.53;;
43363;SDS011;40636;52.424;-1.948;2022-07-23T06:44:17;3.72;;;2.63;;
43363;SDS011;40636;52.424;-1.948;2022-07-23T06:46:44;5.72;;;3.15;;
43363;SDS011;40636;52.424;-1.948;2022-07-23T06:49:11;8.80;;;3.97;;
43363;SDS011;40636;52.424;-1.948;2022-07-23T06:51:38;5.80;;;2.90;;
43363;SDS011;40636;52.424;-1.948;2022-07-23T06:54:05;6.05;;;3.40;;
43363;SDS011;40636;52.424;-1.948;2022-07-23T06:56:32;4.82;;;2.38;;
43363;SDS011;40636;52.424;-1.948;2022-07-23T06:58:59;6.18;;;2.97;;
43363;SDS011;40636;52.424;-1.948;2022-07-23T07:01:27;7.40;;;2.88;;
43363;SDS011;40636;52.424;-1.948;2022-07-23T07:03:54;4.97;;;2.80;;
43363;SDS011;40636;52.424;-1.948;2022-07-23T07:06:21;3.15;;;2.38;;
43363;SDS011;40636;52.424;-1.948;2022-07-23T07:08:48;5.30;;;2.25;;
43363;SDS011;40636;52.424;-1.948;2022-07-23T07:11:15;5.93;;;2.55;;
43363;SDS011;40636;52.424;-1.948;2022-07-23T07:13:42;4.00;;;2.47;;
43363;SDS011;40636;52.424;-1.948;2022-07-23T07:16:09;5.18;;;2.30;;
43363;SDS011;40636;52.424;-1.948;2022-07-23T07:18:36;3.63;;;2.00;;
43363;SDS011;40636;52.424;-1.948;2022-07-23T07:21:02;4.15;;;2.90;;
43363;SDS011;40636;52.424;-1.948;2022-07-23T07:23:29;3.95;;;2.47;;
43363;SDS011;40636;52.424;-1.948;2022-07-23T07:25:56;4.85;;;2.63;;
43363;SDS011;40636;52.424;-1.948;2022-07-23T07:28:23;4.80;;;3.17;;
43363;SDS011;40636;52.424;-1.948;2022-07-23T07:30:50;4.93;;;2.90;;
43363;SDS011;40636;52.424;-1.948;2022-07-23T07:33:17;5.07;;;3.00;;
43363;SDS011;40636;52.424;-1.948;2022-07-23T07:35:44;8.38;;;3.05;;
43363;SDS011;40636;52.424;-1.948;2022-07-23T07:38:11;6.43;;;2.63;;
43363;SDS011;40636;52.424;-1.948;2022-07-23T07:40:38;6.35;;;2.47;;
43363;SDS011;40636;52.424;-1.948;2022-07-23T07:43:05;4.80;;;2.72;;
43363;SDS011;40636;52.424;-1.948;2022-07-23T07:45:32;3.22;;;2.78;;
43363;SDS011;40636;52.424;-1.948;2022-07-23T07:47:59;5.28;;;2.42;;
43363;SDS011;40636;52.424;-1.948;2022-07-23T07:50:26;4.00;;;2.90;;
43363;SDS011;40636;52.424;-1.948;2022-07-23T07:52:52;4.63;;;2.75;;
43363;SDS011;40636;52.424;-1.948;2022-07-23T07:55:19;3.22;;;2.40;;
43363;SDS011;40636;52.424;-1.948;2022-07-23T07:57:46;4.78;;;2.40;;
43363;SDS011;40636;52.424;-1.948;2022-07-23T08:00:15;4.25;;;2.38;;
43363;SDS011;40636;52.424;-1.948;2022-07-23T08:02:46;3.65;;;2.63;;
43363;SDS011;40636;52.424;-1.948;2022-07-23T08:05:18;4.32;;;3.03;;
43363;SDS011;40636;52.424;-1.948;2022-07-23T08:07:54;3.40;;;2.60;;
43363;SDS011;40636;52.424;-1.948;2022-07-23T08:10:23;5.07;;;2.70;;
43363;SDS011;40636;52.424;-1.948;2022-07-23T08:12:54;3.28;;;2.50;;
43363;SDS011;40636;52.424;-1.948;2022-07-23T08:15:23;4.05;;;2.70;;
43363;SDS011;40636;52.424;-1.948;2022-07-23T08:17:52;4.47;;;2.88;;
43363;SDS011;40636;52.424;-1.948;2022-07-23T08:20:20;6.10;;;2.58;;
43363;SDS011;40636;52.424;-1.948;2022-07-23T08:22:49;4.05;;;2.40;;
43363;SDS011;40636;52.424;-1.948;2022-07-23T08:27:53;3.35;;;2.50;;
43363;SDS011;40636;52.424;-1.948;2022-07-23T08:30:21;7.65;;;2.55;;
43363;SDS011;40636;52.424;-1.948;2022-07-23T08:32:52;6.32;;;2.70;;
43363;SDS011;40636;52.424;-1.948;2022-07-23T08:35:35;4.68;;;2.40;;
43363;SDS011;40636;52.424;-1.948;2022-07-23T08:38:04;4.93;;;1.83;;
43363;SDS011;40636;52.424;-1.948;2022-07-23T08:40:36;4.00;;;2.00;;
43363;SDS011;40636;52.424;-1.948;2022-07-23T08:43:10;8.15;;;2.20;;
43363;SDS011;40636;52.424;-1.948;2022-07-23T08:45:40;3.22;;;1.58;;
43363;SDS011;40636;52.424;-1.948;2022-07-23T08:48:11;3.47;;;1.70;;
43363;SDS011;40636;52.424;-1.948;2022-07-23T08:50:45;2.50;;;1.60;;
43363;SDS011;40636;52.424;-1.948;2022-07-23T08:53:22;2.88;;;1.63;;
43363;SDS011;40636;52.424;-1.948;2022-07-23T08:55:51;2.30;;;1.98;;
43363;SDS011;40636;52.424;-1.948;2022-07-23T08:58:20;3.88;;;2.00;;
43363;SDS011;40636;52.424;-1.948;2022-07-23T09:00:55;2.50;;;2.17;;
43363;SDS011;40636;52.424;-1.948;2022-07-23T09:03:27;3.92;;;1.95;;
43363;SDS011;40636;52.424;-1.948;2022-07-23T09:05:57;6.88;;;2.53;;
43363;SDS011;40636;52.424;-1.948;2022-07-23T09:08:25;7.35;;;2.85;;
43363;SDS011;40636;52.424;-1.948;2022-07-23T09:11:01;4.95;;;2.65;;
43363;SDS011;40636;52.424;-1.948;2022-07-23T09:15:59;4.82;;;2.70;;
43363;SDS011;40636;52.424;-1.948;2022-07-23T09:18:35;6.55;;;3.55;;
43363;SDS011;40636;52.424;-1.948;2022-07-23T09:23:54;4.28;;;2.53;;
43363;SDS011;40636;52.424;-1.948;2022-07-23T09:31:47;4.35;;;2.80;;
43363;SDS011;40636;52.424;-1.948;2022-07-23T09:34:19;7.38;;;3.10;;
43363;SDS011;40636;52.424;-1.948;2022-07-23T09:36:52;5.00;;;2.70;;
43363;SDS011;40636;52.424;-1.948;2022-07-23T09:39:41;8.52;;;3.60;;
43363;SDS011;40636;52.424;-1.948;2022-07-23T09:42:13;5.50;;;3.10;;
43363;SDS011;40636;52.424;-1.948;2022-07-23T09:44:45;4.88;;;2.72;;
43363;SDS011;40636;52.424;-1.948;2022-07-23T09:47:14;3.83;;;2.30;;
43363;SDS011;40636;52.424;-1.948;2022-07-23T09:50:27;6.95;;;3.00;;
43363;SDS011;40636;52.424;-1.948;2022-07-23T09:52:34;4.18;;;2.42;;
43363;SDS011;40636;52.424;-1.948;2022-07-23T09:55:03;3.63;;;2.10;;
43363;SDS011;40636;52.424;-1.948;2022-07-23T09:57:32;3.80;;;2.38;;
43363;SDS011;40636;52.424;-1.948;2022-07-23T10:00:04;5.65;;;2.53;;
43363;SDS011;40636;52.424;-1.948;2022-07-23T10:02:33;6.95;;;2.95;;
43363;SDS011;40636;52.424;-1.948;2022-07-23T10:05:01;4.10;;;2.72;;
43363;SDS011;40636;52.424;-1.948;2022-07-23T10:07:28;7.28;;;3.00;;
43363;SDS011;40636;52.424;-1.948;2022-07-23T10:10:00;3.67;;;2.65;;
43363;SDS011;40636;52.424;-1.948;2022-07-23T10:12:28;3.35;;;2.00;;
43363;SDS011;40636;52.424;-1.948;2022-07-23T10:15:10;3.00;;;2.38;;
43363;SDS011;40636;52.424;-1.948;2022-07-23T10:17:37;5.03;;;3.30;;
43363;SDS011;40636;52.424;-1.948;2022-07-23T10:20:04;4.45;;;2.92;;
43363;SDS011;40636;52.424;-1.948;2022-07-23T10:22:35;3.05;;;2.00;;
43363;SDS011;40636;52.424;-1.948;2022-07-23T10:25:22;4.93;;;2.40;;
43363;SDS011;40636;52.424;-1.948;2022-07-23T10:28:04;3.03;;;2.40;;
43363;SDS011;40636;52.424;-1.948;2022-07-23T10:31:14;3.53;;;2.17;;
43363;SDS011;40636;52.424;-1.948;2022-07-23T10:37:15;4.22;;;3.25;;
43363;SDS011;40636;52.424;-1.948;2022-07-23T10:42:40;6.40;;;3.47;;
43363;SDS011;40636;52.424;-1.948;2022-07-23T10:50:40;5.15;;;2.20;;
43363;SDS011;40636;52.424;-1.948;2022-07-23T10:53:15;3.75;;;2.08;;
43363;SDS011;40636;52.424;-1.948;2022-07-23T10:55:45;4.03;;;2.83;;
43363;SDS011;40636;52.424;-1.948;2022-07-23T10:58:17;7.10;;;2.63;;
43363;SDS011;40636;52.424;-1.948;2022-07-23T11:01:40;5.03;;;2.00;;
43363;SDS011;40636;52.424;-1.948;2022-07-23T11:04:03;4.05;;;1.80;;
43363;SDS011;40636;52.424;-1.948;2022-07-23T11:09:26;5.45;;;1.80;;
43363;SDS011;40636;52.424;-1.948;2022-07-23T11:12:40;2.13;;;1.88;;
43363;SDS011;40636;52.424;-1.948;2022-07-23T11:25:11;3.85;;;1.95;;
43363;SDS011;40636;52.424;-1.948;2022-07-23T11:27:45;2.90;;;2.25;;
43363;SDS011;40636;52.424;-1.948;2022-07-23T11:33:15;2.28;;;1.80;;
43363;SDS011;40636;52.424;-1.948;2022-07-23T11:35:44;5.45;;;2.00;;
43363;SDS011;40636;52.424;-1.948;2022-07-23T11:38:14;3.22;;;1.83;;
43363;SDS011;40636;52.424;-1.948;2022-07-23T11:40:50;8.13;;;2.78;;
43363;SDS011;40636;52.424;-1.948;2022-07-23T11:43:18;2.10;;;1.80;;
43363;SDS011;40636;52.424;-1.948;2022-07-23T11:45:47;3.17;;;1.77;;
43363;SDS011;40636;52.424;-1.948;2022-07-23T11:48:16;2.30;;;2.10;;
43363;SDS011;40636;52.424;-1.948;2022-07-23T11:50:46;2.08;;;1.70;;
43363;SDS011;40636;52.424;-1.948;2022-07-23T11:53:13;2.65;;;2.10;;
43363;SDS011;40636;52.424;-1.948;2022-07-23T11:55:40;4.65;;;1.95;;
43363;SDS011;40636;52.424;-1.948;2022-07-23T11:58:07;2.65;;;2.45;;
43363;SDS011;40636;52.424;-1.948;2022-07-23T12:00:34;3.90;;;2.03;;
43363;SDS011;40636;52.424;-1.948;2022-07-23T12:03:06;3.22;;;2.13;;
43363;SDS011;40636;52.424;-1.948;2022-07-23T12:05:34;5.63;;;2.90;;
43363;SDS011;40636;52.424;-1.948;2022-07-23T12:08:08;5.63;;;2.10;;
43363;SDS011;40636;52.424;-1.948;2022-07-23T12:13:09;2.70;;;2.22;;
43363;SDS011;40636;52.424;-1.948;2022-07-23T12:15:48;2.72;;;2.30;;
43363;SDS011;40636;52.424;-1.948;2022-07-23T12:18:22;3.15;;;2.30;;
43363;SDS011;40636;52.424;-1.948;2022-07-23T12:20:52;2.92;;;2.20;;
43363;SDS011;40636;52.424;-1.948;2022-07-23T12:23:21;2.08;;;1.73;;
43363;SDS011;40636;52.424;-1.948;2022-07-23T12:25:50;3.25;;;2.50;;
43363;SDS011;40636;52.424;-1.948;2022-07-23T12:28:28;3.25;;;2.10;;
43363;SDS011;40636;52.424;-1.948;2022-07-23T12:30:58;4.07;;;2.20;;
43363;SDS011;40636;52.424;-1.948;2022-07-23T12:33:26;4.47;;;2.60;;
43363;SDS011;40636;52.424;-1.948;2022-07-23T12:35:55;5.43;;;2.70;;
43363;SDS011;40636;52.424;-1.948;2022-07-23T12:38:25;2.78;;;2.53;;
43363;SDS011;40636;52.424;-1.948;2022-07-23T12:40:54;3.28;;;2.67;;
43363;SDS011;40636;52.424;-1.948;2022-07-23T12:43:24;4.40;;;2.53;;
43363;SDS011;40636;52.424;-1.948;2022-07-23T12:45:52;4.05;;;2.78;;
43363;SDS011;40636;52.424;-1.948;2022-07-23T12:48:23;4.15;;;2.47;;
43363;SDS011;40636;52.424;-1.948;2022-07-23T12:51:17;3.20;;;2.67;;
43363;SDS011;40636;52.424;-1.948;2022-07-23T12:53:48;8.32;;;2.72;;
43363;SDS011;40636;52.424;-1.948;2022-07-23T12:56:18;4.40;;;2.45;;
43363;SDS011;40636;52.424;-1.948;2022-07-23T12:58:51;3.47;;;2.03;;
43363;SDS011;40636;52.424;-1.948;2022-07-23T13:01:24;5.05;;;2.08;;
43363;SDS011;40636;52.424;-1.948;2022-07-23T13:06:30;5.18;;;2.35;;
43363;SDS011;40636;52.424;-1.948;2022-07-23T13:09:00;3.85;;;2.30;;
43363;SDS011;40636;52.424;-1.948;2022-07-23T13:11:28;2.22;;;2.00;;
43363;SDS011;40636;52.424;-1.948;2022-07-23T13:13:56;1.73;;;1.20;;
43363;SDS011;40636;52.424;-1.948;2022-07-23T13:16:23;2.15;;;1.80;;
43363;SDS011;40636;52.424;-1.948;2022-07-23T13:18:53;5.18;;;1.50;;
43363;SDS011;40636;52.424;-1.948;2022-07-23T13:21:20;4.32;;;1.50;;
43363;SDS011;40636;52.424;-1.948;2022-07-23T13:23:47;3.58;;;1.80;;
43363;SDS011;40636;52.424;-1.948;2022-07-23T13:26:15;2.75;;;1.88;;
43363;SDS011;40636;52.424;-1.948;2022-07-23T13:28:42;3.40;;;1.60;;
43363;SDS011;40636;52.424;-1.948;2022-07-23T13:31:09;4.53;;;2.33;;
43363;SDS011;40636;52.424;-1.948;2022-07-23T13:33:36;2.13;;;1.90;;
43363;SDS011;40636;52.424;-1.948;2022-07-23T13:36:03;2.10;;;1.75;;
43363;SDS011;40636;52.424;-1.948;2022-07-23T13:38:30;2.45;;;1.55;;
43363;SDS011;40636;52.424;-1.948;2022-07-23T13:40:57;4.15;;;1.80;;
43363;SDS011;40636;52.424;-1.948;2022-07-23T13:43:25;3.35;;;1.88;;
43363;SDS011;40636;52.424;-1.948;2022-07-23T13:45:58;3.50;;;1.55;;
43363;SDS011;40636;52.424;-1.948;2022-07-23T13:48:26;2.08;;;1.60;;
43363;SDS011;40636;52.424;-1.948;2022-07-23T13:50:55;3.13;;;1.30;;
43363;SDS011;40636;52.424;-1.948;2022-07-23T13:53:23;5.50;;;1.95;;
43363;SDS011;40636;52.424;-1.948;2022-07-23T13:55:51;2.95;;;2.10;;
43363;SDS011;40636;52.424;-1.948;2022-07-23T13:58:19;2.20;;;1.80;;
43363;SDS011;40636;52.424;-1.948;2022-07-23T14:00:50;2.22;;;2.00;;
43363;SDS011;40636;52.424;-1.948;2022-07-23T14:03:20;3.45;;;1.70;;
43363;SDS011;40636;52.424;-1.948;2022-07-23T14:05:52;2.83;;;1.80;;
43363;SDS011;40636;52.424;-1.948;2022-07-23T14:08:22;4.75;;;2.78;;
43363;SDS011;40636;52.424;-1.948;2022-07-23T14:10:49;3.35;;;1.80;;
43363;SDS011;40636;52.424;-1.948;2022-07-23T14:13:16;3.72;;;1.85;;
43363;SDS011;40636;52.424;-1.948;2022-07-23T14:15:47;4.40;;;3.03;;
43363;SDS011;40636;52.424;-1.948;2022-07-23T14:18:16;5.65;;;2.25;;
43363;SDS011;40636;52.424;-1.948;2022-07-23T14:20:43;2.60;;;1.90;;
43363;SDS011;40636;52.424;-1.948;2022-07-23T14:23:10;5.35;;;1.77;;
43363;SDS011;40636;52.424;-1.948;2022-07-23T14:25:39;3.97;;;2.10;;
43363;SDS011;40636;52.424;-1.948;2022-07-23T14:28:06;7.72;;;2.63;;
43363;SDS011;40636;52.424;-1.948;2022-07-23T14:30:34;4.15;;;2.22;;
43363;SDS011;40636;52.424;-1.948;2022-07-23T14:33:01;2.45;;;1.95;;
43363;SDS011;40636;52.424;-1.948;2022-07-23T14:35:28;4.35;;;1.65;;
43363;SDS011;40636;52.424;-1.948;2022-07-23T14:37:55;5.35;;;1.83;;
43363;SDS011;40636;52.424;-1.948;2022-07-23T14:40:23;4.28;;;2.15;;
43363;SDS011;40636;52.424;-1.948;2022-07-23T14:42:50;2.80;;;2.25;;
43363;SDS011;40636;52.424;-1.948;2022-07-23T14:45:17;2.30;;;2.08;;
43363;SDS011;40636;52.424;-1.948;2022-07-23T14:47:44;3.55;;;2.00;;
43363;SDS011;40636;52.424;-1.948;2022-07-23T14:50:13;4.03;;;2.55;;
43363;SDS011;40636;52.424;-1.948;2022-07-23T14:52:41;2.45;;;2.00;;
43363;SDS011;40636;52.424;-1.948;2022-07-23T14:55:08;5.53;;;2.30;;
43363;SDS011;40636;52.424;-1.948;2022-07-23T14:57:35;4.30;;;2.40;;
43363;SDS011;40636;52.424;-1.948;2022-07-23T15:00:05;1.92;;;1.50;;
43363;SDS011;40636;52.424;-1.948;2022-07-23T15:02:34;4.82;;;2.03;;
43363;SDS011;40636;52.424;-1.948;2022-07-23T15:05:01;2.33;;;1.75;;
43363;SDS011;40636;52.424;-1.948;2022-07-23T15:07:32;1.80;;;1.50;;
43363;SDS011;40636;52.424;-1.948;2022-07-23T15:10:00;4.35;;;2.05;;
43363;SDS011;40636;52.424;-1.948;2022-07-23T15:12:28;2.90;;;1.85;;
43363;SDS011;40636;52.424;-1.948;2022-07-23T15:14:55;3.50;;;1.95;;
43363;SDS011;40636;52.424;-1.948;2022-07-23T15:17:22;4.97;;;2.20;;
43363;SDS011;40636;52.424;-1.948;2022-07-23T15:19:52;4.70;;;1.85;;
43363;SDS011;40636;52.424;-1.948;2022-07-23T15:22:19;3.28;;;1.90;;
43363;SDS011;40636;52.424;-1.948;2022-07-23T15:24:47;2.95;;;1.63;;